Terminal Aerodrome Forecast
Issued by NWS

Home | Current Version | Previous Version | Graphics & Text | Print | Product List | Glossary On
Versions: 1 2 3 4 5 6 7 8 9 10 11 12 13 14 15 16 17 18 19
000
FTUS43 KBIS 250300 AAC
TAFJMS
TAF AMD
KJMS 250330Z 2504/2524 25007KT P6SM SCT025 OVC100
     FM250600 29007KT P6SM SCT005 SCT150
      TEMPO 2507/2510 31008KT 4SM BR BKN008
     FM251000 33009KT 4SM -SHSN BR BKN008 OVC015
     FM251700 34011KT 5SM -SHSN BR OVC015=

USA.gov is the U.S. government's official web portal to all federal, state and local government web resources and services.